VLG18YW LEMG-LFPO
Flight info
| Callsign | VLG18YW |
|---|---|
| Flight time | 1h 54m |
| Altitude | 38000 |
| Route | BLN DCT MORAL DCT BEXID DCT VTB DCT RBO DCT OSTIX DCT GASMO DCT DGO DCT CEGAM DCT BAGAS DCT SSN DCT LUSEM DCT LULUT DCT TUDRA DCT BEVOL UT158 AMB |
| Aircraft | A320/M-SDE3FGHIRWY/LB1 |
Departure
| Time | 2026-05-04 11:49 |
|---|---|
| Airport | Málaga-Costa del Sol Airport (LEMG) |
Arrival
| Time | 2026-05-04 13:44 |
|---|---|
| Airport | Paris-Orly Airport (LFPO) |
| Time | Latitude | Longitude | Altitude | Speed | Heading |
|---|---|---|---|---|---|
| 2026-05-04 11:24 | 36.67883 | -4.49562 | 48 ft | 0 kts | 133° |
| 2026-05-04 11:40 | 36.67943 | -4.49659 | 47 ft | 4 kts | 109° |
| 2026-05-04 11:41 | 36.67945 | -4.49688 | 47 ft | 4 kts | 54° |
| 2026-05-04 11:41 | 36.67939 | -4.49696 | 45 ft | 1 kts | 41° |
| 2026-05-04 11:43 | 36.67940 | -4.49696 | 46 ft | 1 kts | 41° |
| 2026-05-04 11:44 | 36.67974 | -4.49658 | 49 ft | 8 kts | 41° |
| 2026-05-04 11:44 | 36.68015 | -4.49613 | 49 ft | 7 kts | 41° |
| 2026-05-04 11:44 | 36.68055 | -4.49569 | 49 ft | 11 kts | 41° |
| 2026-05-04 11:44 | 36.68134 | -4.49482 | 49 ft | 16 kts | 42° |
| 2026-05-04 11:45 | 36.68213 | -4.49394 | 49 ft | 14 kts | 41° |
| 2026-05-04 11:45 | 36.68283 | -4.49313 | 49 ft | 14 kts | 60° |
| 2026-05-04 11:45 | 36.68247 | -4.49181 | 49 ft | 19 kts | 117° |
| 2026-05-04 11:45 | 36.68180 | -4.49021 | 48 ft | 21 kts | 117° |
| 2026-05-04 11:46 | 36.68116 | -4.48869 | 48 ft | 19 kts | 117° |
| 2026-05-04 11:46 | 36.68056 | -4.48728 | 48 ft | 18 kts | 117° |
| 2026-05-04 11:46 | 36.68002 | -4.48599 | 47 ft | 16 kts | 117° |
| 2026-05-04 11:46 | 36.67952 | -4.48480 | 48 ft | 15 kts | 117° |
| 2026-05-04 11:47 | 36.67901 | -4.48359 | 47 ft | 18 kts | 117° |
| 2026-05-04 11:47 | 36.67834 | -4.48202 | 49 ft | 21 kts | 118° |
| 2026-05-04 11:47 | 36.67806 | -4.48102 | 49 ft | 5 kts | 36° |
| 2026-05-04 11:47 | 36.67839 | -4.48080 | 48 ft | 7 kts | 28° |
| 2026-05-04 11:48 | 36.67885 | -4.48050 | 48 ft | 8 kts | 28° |
| 2026-05-04 11:48 | 36.67938 | -4.48029 | 47 ft | 8 kts | 344° |
| 2026-05-04 11:48 | 36.67973 | -4.48089 | 47 ft | 10 kts | 296° |
| 2026-05-04 11:48 | 36.68044 | -4.48257 | 43 ft | 51 kts | 298° |
| 2026-05-04 11:49 | 36.68319 | -4.48913 | 48 ft | 116 kts | 297° |
| 2026-05-04 11:49 | 36.68779 | -4.49998 | 113 ft | 160 kts | 298° |
| 2026-05-04 11:49 | 36.69285 | -4.51155 | 979 ft | 149 kts | 297° |
| 2026-05-04 11:49 | 36.69951 | -4.52188 | 1617 ft | 162 kts | 308° |
| 2026-05-04 11:50 | 36.70771 | -4.53273 | 2069 ft | 180 kts | 308° |
| 2026-05-04 11:50 | 36.71674 | -4.54473 | 2504 ft | 202 kts | 310° |
| 2026-05-04 11:50 | 36.72662 | -4.55765 | 3320 ft | 206 kts | 311° |
| 2026-05-04 11:50 | 36.73649 | -4.57049 | 4243 ft | 206 kts | 313° |
| 2026-05-04 11:51 | 36.74653 | -4.58360 | 4991 ft | 214 kts | 314° |
| 2026-05-04 11:51 | 36.75871 | -4.59460 | 5684 ft | 222 kts | 337° |
| 2026-05-04 11:51 | 36.77365 | -4.60034 | 6476 ft | 227 kts | 342° |
| 2026-05-04 11:51 | 36.78894 | -4.60583 | 7228 ft | 231 kts | 341° |
| 2026-05-04 11:52 | 36.80490 | -4.60944 | 7985 ft | 239 kts | 357° |
| 2026-05-04 11:52 | 36.82148 | -4.60525 | 8694 ft | 255 kts | 19° |
| 2026-05-04 11:52 | 36.83680 | -4.59219 | 9194 ft | 278 kts | 39° |
| 2026-05-04 11:52 | 36.85143 | -4.57580 | 9941 ft | 286 kts | 38° |
| 2026-05-04 11:53 | 36.86653 | -4.55901 | 10593 ft | 295 kts | 38° |
| 2026-05-04 11:53 | 36.88207 | -4.54182 | 11288 ft | 301 kts | 38° |
| 2026-05-04 11:53 | 36.89787 | -4.52438 | 12024 ft | 305 kts | 38° |
| 2026-05-04 11:53 | 36.91393 | -4.50670 | 12816 ft | 309 kts | 38° |
| 2026-05-04 11:55 | 37.04205 | -4.38442 | 16309 ft | 383 kts | 28° |
| 2026-05-04 11:55 | 37.06490 | -4.36640 | 16760 ft | 392 kts | 28° |
| 2026-05-04 11:56 | 37.08810 | -4.34798 | 17396 ft | 397 kts | 28° |
| 2026-05-04 11:56 | 37.11149 | -4.32930 | 18028 ft | 401 kts | 28° |
| 2026-05-04 11:56 | 37.13506 | -4.31045 | 18621 ft | 404 kts | 28° |
| 2026-05-04 11:56 | 37.15894 | -4.29139 | 19189 ft | 408 kts | 28° |
| 2026-05-04 11:57 | 37.18303 | -4.27217 | 19701 ft | 413 kts | 28° |
| 2026-05-04 11:57 | 37.20737 | -4.25271 | 20235 ft | 417 kts | 28° |
| 2026-05-04 11:57 | 37.23194 | -4.23305 | 20766 ft | 421 kts | 28° |
| 2026-05-04 11:57 | 37.25677 | -4.21318 | 21281 ft | 425 kts | 28° |
| 2026-05-04 11:58 | 37.28178 | -4.19318 | 21795 ft | 428 kts | 28° |
| 2026-05-04 11:58 | 37.30694 | -4.17305 | 22287 ft | 432 kts | 28° |
| 2026-05-04 11:58 | 37.33241 | -4.15268 | 22792 ft | 435 kts | 28° |
| 2026-05-04 11:58 | 37.35808 | -4.13212 | 23277 ft | 439 kts | 28° |
| 2026-05-04 11:59 | 37.38395 | -4.11135 | 23734 ft | 443 kts | 28° |
| 2026-05-04 11:59 | 37.41000 | -4.09037 | 24159 ft | 447 kts | 28° |
| 2026-05-04 11:59 | 37.43629 | -4.06916 | 24539 ft | 451 kts | 28° |
| 2026-05-04 11:59 | 37.46278 | -4.04779 | 24918 ft | 454 kts | 28° |
| 2026-05-04 12:00 | 37.48947 | -4.02629 | 25308 ft | 457 kts | 27° |
| 2026-05-04 12:00 | 37.51635 | -4.00466 | 25714 ft | 460 kts | 27° |
| 2026-05-04 12:00 | 37.54339 | -3.98292 | 26093 ft | 463 kts | 27° |
| 2026-05-04 12:00 | 37.57067 | -3.96097 | 26474 ft | 466 kts | 27° |
| 2026-05-04 12:01 | 37.59768 | -3.93918 | 26871 ft | 469 kts | 27° |
| 2026-05-04 12:01 | 37.62520 | -3.91693 | 27271 ft | 471 kts | 27° |
| 2026-05-04 12:02 | 37.79354 | -3.78007 | 29446 ft | 488 kts | 27° |
| 2026-05-04 12:03 | 37.81292 | -3.76450 | 29670 ft | 489 kts | 25° |
| 2026-05-04 12:03 | 37.84303 | -3.74493 | 29989 ft | 485 kts | 16° |
| 2026-05-04 12:03 | 37.87418 | -3.73093 | 30286 ft | 480 kts | 9° |
| 2026-05-04 12:03 | 37.90628 | -3.71893 | 30606 ft | 482 kts | 9° |
| 2026-05-04 12:04 | 37.93851 | -3.70677 | 30867 ft | 485 kts | 9° |
| 2026-05-04 12:04 | 37.97088 | -3.69445 | 31127 ft | 487 kts | 10° |
| 2026-05-04 12:04 | 38.00335 | -3.68197 | 31406 ft | 489 kts | 10° |
| 2026-05-04 12:04 | 38.03593 | -3.66942 | 31749 ft | 489 kts | 10° |
| 2026-05-04 12:05 | 38.06843 | -3.65688 | 32137 ft | 488 kts | 10° |
| 2026-05-04 12:05 | 38.10088 | -3.64439 | 32529 ft | 487 kts | 10° |
| 2026-05-04 12:05 | 38.13330 | -3.63206 | 32906 ft | 485 kts | 8° |
| 2026-05-04 12:05 | 38.16605 | -3.62363 | 33297 ft | 476 kts | 359° |
| 2026-05-04 12:06 | 38.19886 | -3.62008 | 33642 ft | 473 kts | 356° |
| 2026-05-04 12:06 | 38.23164 | -3.61704 | 34014 ft | 472 kts | 356° |
| 2026-05-04 12:06 | 38.26439 | -3.61396 | 34340 ft | 472 kts | 356° |
| 2026-05-04 12:06 | 38.29709 | -3.61083 | 34649 ft | 471 kts | 356° |
| 2026-05-04 12:07 | 38.32978 | -3.60766 | 34956 ft | 471 kts | 356° |
| 2026-05-04 12:07 | 38.36243 | -3.60445 | 35263 ft | 470 kts | 356° |
| 2026-05-04 12:07 | 38.39504 | -3.60122 | 35559 ft | 470 kts | 356° |
| 2026-05-04 12:07 | 38.42769 | -3.59799 | 35827 ft | 470 kts | 356° |
| 2026-05-04 12:08 | 38.46025 | -3.59477 | 36108 ft | 469 kts | 356° |
| 2026-05-04 12:08 | 38.49277 | -3.59161 | 36383 ft | 469 kts | 356° |
| 2026-05-04 12:08 | 38.52530 | -3.58850 | 36650 ft | 468 kts | 356° |
| 2026-05-04 12:08 | 38.55773 | -3.58542 | 36913 ft | 468 kts | 356° |
| 2026-05-04 12:09 | 38.59020 | -3.58232 | 37169 ft | 467 kts | 356° |
| 2026-05-04 12:09 | 38.62258 | -3.57921 | 37455 ft | 467 kts | 356° |
| 2026-05-04 12:09 | 38.65495 | -3.57609 | 37692 ft | 466 kts | 356° |
| 2026-05-04 12:09 | 38.68728 | -3.57291 | 37921 ft | 466 kts | 356° |
| 2026-05-04 12:10 | 38.75186 | -3.56658 | 37995 ft | 464 kts | 356° |
| 2026-05-04 12:10 | 38.81624 | -3.56021 | 37995 ft | 464 kts | 356° |
| 2026-05-04 12:11 | 38.88058 | -3.55390 | 37982 ft | 464 kts | 356° |
| 2026-05-04 12:11 | 38.94496 | -3.54767 | 37991 ft | 464 kts | 356° |
| 2026-05-04 12:12 | 39.00932 | -3.54135 | 37992 ft | 464 kts | 356° |
| 2026-05-04 12:12 | 39.07379 | -3.53494 | 38018 ft | 464 kts | 357° |
| 2026-05-04 12:14 | 39.33148 | -3.50907 | 38025 ft | 466 kts | 357° |
| 2026-05-04 12:15 | 39.39607 | -3.50264 | 38011 ft | 466 kts | 357° |
| 2026-05-04 12:15 | 39.46069 | -3.49619 | 37996 ft | 466 kts | 357° |
| 2026-05-04 12:16 | 39.52531 | -3.48967 | 37992 ft | 466 kts | 357° |
| 2026-05-04 12:16 | 39.58995 | -3.48313 | 38005 ft | 466 kts | 358° |
| 2026-05-04 12:17 | 39.65463 | -3.47658 | 37998 ft | 466 kts | 357° |
| 2026-05-04 12:17 | 39.71929 | -3.47018 | 37993 ft | 466 kts | 357° |
| 2026-05-04 12:18 | 39.78396 | -3.46362 | 38010 ft | 467 kts | 359° |
| 2026-05-04 12:18 | 39.84867 | -3.45284 | 37999 ft | 470 kts | 2° |
| 2026-05-04 12:19 | 39.91324 | -3.43850 | 37993 ft | 471 kts | 4° |
| 2026-05-04 12:19 | 39.97785 | -3.42425 | 37981 ft | 470 kts | 2° |
| 2026-05-04 12:20 | 40.04250 | -3.41115 | 37996 ft | 470 kts | 2° |
| 2026-05-04 12:20 | 40.10724 | -3.39857 | 37999 ft | 470 kts | 2° |
| 2026-05-04 12:21 | 40.17196 | -3.38577 | 37994 ft | 471 kts | 2° |
| 2026-05-04 12:21 | 40.23671 | -3.37255 | 37995 ft | 471 kts | 3° |
| 2026-05-04 12:22 | 40.30146 | -3.35939 | 37991 ft | 471 kts | 3° |
| 2026-05-04 12:22 | 40.36621 | -3.34633 | 37990 ft | 471 kts | 3° |
| 2026-05-04 12:23 | 40.43095 | -3.33314 | 38020 ft | 471 kts | 3° |
| 2026-05-04 12:23 | 40.49570 | -3.31997 | 38006 ft | 471 kts | 3° |
| 2026-05-04 12:24 | 40.56044 | -3.30678 | 37994 ft | 470 kts | 3° |
| 2026-05-04 12:24 | 40.62513 | -3.29361 | 37993 ft | 470 kts | 4° |
| 2026-05-04 12:25 | 40.68981 | -3.28032 | 37988 ft | 470 kts | 4° |
| 2026-05-04 12:25 | 40.75447 | -3.26705 | 37987 ft | 470 kts | 3° |
| 2026-05-04 12:26 | 40.81871 | -3.25388 | 37985 ft | 470 kts | 4° |
| 2026-05-04 12:26 | 40.88379 | -3.24029 | 38007 ft | 470 kts | 4° |
| 2026-05-04 12:27 | 40.94837 | -3.22590 | 37999 ft | 471 kts | 5° |
| 2026-05-04 12:27 | 41.01291 | -3.21113 | 37993 ft | 471 kts | 5° |
| 2026-05-04 12:28 | 41.07705 | -3.19655 | 37988 ft | 471 kts | 4° |
| 2026-05-04 12:28 | 41.14210 | -3.18201 | 38023 ft | 471 kts | 5° |
| 2026-05-04 12:29 | 41.20626 | -3.16757 | 37998 ft | 471 kts | 5° |
| 2026-05-04 12:29 | 41.27130 | -3.15292 | 37995 ft | 470 kts | 5° |
| 2026-05-04 12:30 | 41.33585 | -3.13836 | 38010 ft | 471 kts | 5° |
| 2026-05-04 12:30 | 41.40040 | -3.12369 | 38009 ft | 471 kts | 5° |
| 2026-05-04 12:31 | 41.46448 | -3.10909 | 38006 ft | 470 kts | 5° |
| 2026-05-04 12:31 | 41.52901 | -3.09435 | 38038 ft | 470 kts | 5° |
| 2026-05-04 12:32 | 41.62582 | -3.07248 | 38022 ft | 470 kts | 5° |
| 2026-05-04 12:33 | 41.69029 | -3.05778 | 38014 ft | 470 kts | 5° |
| 2026-05-04 12:33 | 41.75478 | -3.04302 | 37997 ft | 470 kts | 5° |
| 2026-05-04 12:34 | 41.81936 | -3.02812 | 37992 ft | 471 kts | 5° |
| 2026-05-04 12:34 | 41.88402 | -3.01328 | 37992 ft | 472 kts | 5° |
| 2026-05-04 12:35 | 41.94869 | -2.99833 | 38016 ft | 472 kts | 6° |
| 2026-05-04 12:35 | 42.01342 | -2.98331 | 38015 ft | 472 kts | 6° |
| 2026-05-04 12:36 | 42.07814 | -2.96826 | 38015 ft | 472 kts | 6° |
| 2026-05-04 12:36 | 42.14286 | -2.95326 | 38010 ft | 471 kts | 6° |
| 2026-05-04 12:37 | 42.20744 | -2.93824 | 38017 ft | 471 kts | 6° |
| 2026-05-04 12:37 | 42.27201 | -2.92319 | 38021 ft | 471 kts | 6° |
| 2026-05-04 12:38 | 42.33662 | -2.90805 | 38021 ft | 471 kts | 6° |
| 2026-05-04 12:38 | 42.40114 | -2.89284 | 38028 ft | 471 kts | 8° |
| 2026-05-04 12:38 | 42.43281 | -2.88076 | 38028 ft | 475 kts | 19° |
| 2026-05-04 12:39 | 42.46276 | -2.86171 | 38027 ft | 478 kts | 28° |
| 2026-05-04 12:39 | 42.49015 | -2.83618 | 38022 ft | 479 kts | 39° |
| 2026-05-04 12:39 | 42.51516 | -2.80626 | 38020 ft | 480 kts | 41° |
| 2026-05-04 12:40 | 42.56505 | -2.74610 | 38016 ft | 480 kts | 40° |
| 2026-05-04 12:40 | 42.61508 | -2.68594 | 38027 ft | 480 kts | 40° |
| 2026-05-04 12:41 | 42.66493 | -2.62568 | 38016 ft | 481 kts | 41° |
| 2026-05-04 12:41 | 42.71488 | -2.56498 | 38016 ft | 481 kts | 41° |
| 2026-05-04 12:42 | 42.76443 | -2.50462 | 38019 ft | 481 kts | 41° |
| 2026-05-04 12:42 | 42.81437 | -2.44378 | 38020 ft | 482 kts | 41° |
| 2026-05-04 12:43 | 42.86427 | -2.38290 | 38023 ft | 482 kts | 41° |
| 2026-05-04 12:43 | 42.91418 | -2.32187 | 38024 ft | 482 kts | 41° |
| 2026-05-04 12:44 | 42.96403 | -2.26067 | 38001 ft | 482 kts | 41° |
| 2026-05-04 12:44 | 43.01387 | -2.19928 | 38032 ft | 483 kts | 41° |
| 2026-05-04 12:45 | 43.06376 | -2.13763 | 38027 ft | 483 kts | 41° |
| 2026-05-04 12:45 | 43.11352 | -2.07599 | 38035 ft | 483 kts | 41° |
| 2026-05-04 12:46 | 43.16331 | -2.01432 | 38036 ft | 483 kts | 41° |
| 2026-05-04 12:46 | 43.21311 | -1.95261 | 38048 ft | 482 kts | 41° |
| 2026-05-04 12:47 | 43.26276 | -1.89086 | 38025 ft | 482 kts | 41° |
| 2026-05-04 12:47 | 43.31340 | -1.83056 | 38025 ft | 481 kts | 34° |
| 2026-05-04 12:48 | 43.37079 | -1.78374 | 38020 ft | 480 kts | 28° |
| 2026-05-04 12:48 | 43.42775 | -1.73544 | 38037 ft | 481 kts | 32° |
| 2026-05-04 12:49 | 43.48326 | -1.68393 | 38042 ft | 481 kts | 33° |
| 2026-05-04 12:49 | 43.52931 | -1.64101 | 38042 ft | 481 kts | 33° |
| 2026-05-04 12:50 | 43.58504 | -1.59012 | 38036 ft | 480 kts | 32° |
| 2026-05-04 12:50 | 43.64094 | -1.53960 | 38035 ft | 480 kts | 32° |
| 2026-05-04 12:51 | 43.69673 | -1.48904 | 38004 ft | 480 kts | 32° |
| 2026-05-04 12:51 | 43.75242 | -1.43819 | 38005 ft | 480 kts | 32° |
| 2026-05-04 12:52 | 43.80812 | -1.38722 | 38008 ft | 480 kts | 32° |
| 2026-05-04 12:52 | 43.86376 | -1.33614 | 38013 ft | 480 kts | 33° |
| 2026-05-04 12:53 | 43.91936 | -1.28505 | 38006 ft | 480 kts | 33° |
| 2026-05-04 12:53 | 43.97496 | -1.23393 | 38002 ft | 479 kts | 33° |
| 2026-05-04 12:54 | 44.03054 | -1.18266 | 38001 ft | 479 kts | 33° |
| 2026-05-04 12:54 | 44.08603 | -1.13125 | 37971 ft | 479 kts | 33° |
| 2026-05-04 12:55 | 44.14149 | -1.07976 | 37974 ft | 479 kts | 33° |
| 2026-05-04 12:55 | 44.19695 | -1.02822 | 37965 ft | 479 kts | 33° |
| 2026-05-04 12:56 | 44.25242 | -0.97655 | 37972 ft | 479 kts | 33° |
| 2026-05-04 12:56 | 44.30783 | -0.92485 | 37970 ft | 479 kts | 33° |
| 2026-05-04 12:57 | 44.36316 | -0.87300 | 37961 ft | 479 kts | 33° |
| 2026-05-04 12:57 | 44.41977 | -0.82420 | 37974 ft | 478 kts | 26° |
| 2026-05-04 12:58 | 44.47878 | -0.78138 | 37969 ft | 478 kts | 26° |
| 2026-05-04 12:58 | 44.53775 | -0.73860 | 37940 ft | 477 kts | 27° |
| 2026-05-04 12:59 | 44.59670 | -0.69567 | 37940 ft | 477 kts | 27° |
| 2026-05-04 12:59 | 44.65555 | -0.65258 | 37948 ft | 477 kts | 27° |
| 2026-05-04 13:00 | 44.71438 | -0.60937 | 37946 ft | 477 kts | 27° |
| 2026-05-04 13:00 | 44.77322 | -0.56610 | 37947 ft | 477 kts | 27° |
| 2026-05-04 13:01 | 44.83202 | -0.52275 | 37950 ft | 477 kts | 27° |
| 2026-05-04 13:01 | 44.89083 | -0.47931 | 37947 ft | 477 kts | 27° |
| 2026-05-04 13:02 | 44.94956 | -0.43577 | 37941 ft | 477 kts | 27° |
| 2026-05-04 13:02 | 45.00833 | -0.39220 | 37943 ft | 477 kts | 27° |
| 2026-05-04 13:03 | 45.06706 | -0.34858 | 37938 ft | 477 kts | 27° |
| 2026-05-04 13:03 | 45.12575 | -0.30482 | 37933 ft | 477 kts | 27° |
| 2026-05-04 13:04 | 45.18438 | -0.26100 | 37938 ft | 476 kts | 27° |
| 2026-05-04 13:04 | 45.24257 | -0.21741 | 37951 ft | 476 kts | 27° |
| 2026-05-04 13:05 | 45.30147 | -0.17316 | 37941 ft | 476 kts | 27° |
| 2026-05-04 13:05 | 45.35955 | -0.12943 | 37942 ft | 475 kts | 27° |
| 2026-05-04 13:06 | 45.41799 | -0.08531 | 37952 ft | 475 kts | 27° |
| 2026-05-04 13:06 | 45.47639 | -0.04121 | 37952 ft | 475 kts | 28° |
| 2026-05-04 13:07 | 45.53470 | 0.00295 | 37917 ft | 475 kts | 27° |
| 2026-05-04 13:07 | 45.59304 | 0.04724 | 37929 ft | 475 kts | 28° |
| 2026-05-04 13:08 | 45.65143 | 0.09166 | 37927 ft | 475 kts | 28° |
| 2026-05-04 13:08 | 45.70974 | 0.13620 | 37947 ft | 475 kts | 28° |
| 2026-05-04 13:09 | 45.76804 | 0.18078 | 37947 ft | 475 kts | 28° |
| 2026-05-04 13:09 | 45.82625 | 0.22546 | 37954 ft | 475 kts | 28° |
| 2026-05-04 13:10 | 45.88466 | 0.27032 | 37947 ft | 476 kts | 28° |
| 2026-05-04 13:10 | 45.94296 | 0.31525 | 37939 ft | 475 kts | 28° |
| 2026-05-04 13:11 | 46.00122 | 0.36022 | 37941 ft | 475 kts | 28° |
| 2026-05-04 13:11 | 46.05943 | 0.40531 | 37914 ft | 475 kts | 28° |
| 2026-05-04 13:12 | 46.11768 | 0.45053 | 37912 ft | 476 kts | 28° |
| 2026-05-04 13:12 | 46.17594 | 0.49586 | 37930 ft | 476 kts | 28° |
| 2026-05-04 13:13 | 46.23413 | 0.54135 | 37936 ft | 476 kts | 28° |
| 2026-05-04 13:13 | 46.29235 | 0.58682 | 37939 ft | 475 kts | 28° |
| 2026-05-04 13:14 | 46.35047 | 0.63233 | 37945 ft | 475 kts | 28° |
| 2026-05-04 13:14 | 46.40856 | 0.67794 | 37949 ft | 475 kts | 28° |
| 2026-05-04 13:15 | 46.46676 | 0.72387 | 37798 ft | 482 kts | 28° |
| 2026-05-04 13:15 | 46.49630 | 0.74724 | 37529 ft | 485 kts | 28° |
| 2026-05-04 13:15 | 46.52612 | 0.77014 | 37260 ft | 484 kts | 24° |
| 2026-05-04 13:15 | 46.55769 | 0.78672 | 37001 ft | 481 kts | 13° |
| 2026-05-04 13:16 | 46.59030 | 0.79724 | 36745 ft | 479 kts | 11° |
| 2026-05-04 13:16 | 46.62278 | 0.80736 | 36487 ft | 477 kts | 11° |
| 2026-05-04 13:16 | 46.65515 | 0.81747 | 36208 ft | 475 kts | 11° |
| 2026-05-04 13:16 | 46.68736 | 0.82760 | 35953 ft | 472 kts | 11° |
| 2026-05-04 13:17 | 46.71934 | 0.83769 | 35481 ft | 469 kts | 11° |
| 2026-05-04 13:17 | 46.75108 | 0.84773 | 34962 ft | 466 kts | 11° |
| 2026-05-04 13:17 | 46.78268 | 0.85776 | 34432 ft | 464 kts | 11° |
| 2026-05-04 13:17 | 46.81412 | 0.86779 | 33922 ft | 462 kts | 12° |
| 2026-05-04 13:18 | 46.84540 | 0.87776 | 33361 ft | 459 kts | 12° |
| 2026-05-04 13:18 | 46.87649 | 0.88767 | 32870 ft | 455 kts | 12° |
| 2026-05-04 13:18 | 46.90726 | 0.89747 | 32368 ft | 451 kts | 12° |
| 2026-05-04 13:18 | 46.93779 | 0.90719 | 31866 ft | 447 kts | 12° |
| 2026-05-04 13:19 | 46.96809 | 0.91685 | 31379 ft | 444 kts | 12° |
| 2026-05-04 13:19 | 46.99817 | 0.92645 | 30888 ft | 441 kts | 12° |
| 2026-05-04 13:19 | 47.02799 | 0.93596 | 30419 ft | 437 kts | 12° |
| 2026-05-04 13:19 | 47.05761 | 0.94536 | 29949 ft | 434 kts | 12° |
| 2026-05-04 13:20 | 47.08702 | 0.95469 | 29466 ft | 430 kts | 12° |
| 2026-05-04 13:20 | 47.11606 | 0.96392 | 29023 ft | 424 kts | 12° |
| 2026-05-04 13:20 | 47.14468 | 0.97310 | 28589 ft | 419 kts | 12° |
| 2026-05-04 13:20 | 47.17299 | 0.98221 | 28167 ft | 413 kts | 12° |
| 2026-05-04 13:21 | 47.20091 | 0.99120 | 27742 ft | 408 kts | 12° |
| 2026-05-04 13:21 | 47.22851 | 1.00006 | 27318 ft | 404 kts | 12° |
| 2026-05-04 13:21 | 47.25583 | 1.00880 | 26896 ft | 400 kts | 12° |
| 2026-05-04 13:21 | 47.28295 | 1.01746 | 26455 ft | 397 kts | 12° |
| 2026-05-04 13:22 | 47.30949 | 1.02595 | 26022 ft | 395 kts | 12° |
| 2026-05-04 13:22 | 47.33629 | 1.03455 | 25572 ft | 393 kts | 12° |
| 2026-05-04 13:22 | 47.36289 | 1.04311 | 25115 ft | 391 kts | 12° |
| 2026-05-04 13:22 | 47.38939 | 1.05165 | 24655 ft | 389 kts | 12° |
| 2026-05-04 13:23 | 47.41576 | 1.06014 | 24171 ft | 388 kts | 12° |
| 2026-05-04 13:23 | 47.44166 | 1.07086 | 23712 ft | 386 kts | 20° |
| 2026-05-04 13:23 | 47.46692 | 1.08399 | 23239 ft | 383 kts | 20° |
| 2026-05-04 13:23 | 47.49197 | 1.09697 | 22789 ft | 380 kts | 20° |
| 2026-05-04 13:24 | 47.51681 | 1.10975 | 22371 ft | 376 kts | 19° |
| 2026-05-04 13:24 | 47.54145 | 1.12224 | 21941 ft | 373 kts | 19° |
| 2026-05-04 13:24 | 47.56594 | 1.13456 | 21516 ft | 370 kts | 19° |
| 2026-05-04 13:25 | 47.61437 | 1.15897 | 20681 ft | 365 kts | 19° |
| 2026-05-04 13:25 | 47.63830 | 1.17106 | 20262 ft | 362 kts | 19° |
| 2026-05-04 13:25 | 47.66207 | 1.18310 | 19860 ft | 360 kts | 19° |
| 2026-05-04 13:25 | 47.68569 | 1.19515 | 19451 ft | 358 kts | 19° |
| 2026-05-04 13:26 | 47.70917 | 1.20717 | 19044 ft | 356 kts | 19° |
| 2026-05-04 13:26 | 47.73255 | 1.21915 | 18643 ft | 355 kts | 19° |
| 2026-05-04 13:26 | 47.75575 | 1.23104 | 18279 ft | 352 kts | 19° |
| 2026-05-04 13:26 | 47.77884 | 1.24281 | 17902 ft | 349 kts | 19° |
| 2026-05-04 13:27 | 47.80174 | 1.25449 | 17461 ft | 348 kts | 19° |
| 2026-05-04 13:27 | 47.82443 | 1.26608 | 17179 ft | 342 kts | 19° |
| 2026-05-04 13:27 | 47.84689 | 1.27760 | 16646 ft | 339 kts | 19° |
| 2026-05-04 13:27 | 47.86897 | 1.28895 | 16235 ft | 333 kts | 20° |
| 2026-05-04 13:28 | 47.89090 | 1.30025 | 15871 ft | 333 kts | 20° |
| 2026-05-04 13:28 | 47.91278 | 1.31151 | 15492 ft | 332 kts | 20° |
| 2026-05-04 13:28 | 47.93454 | 1.32275 | 15189 ft | 329 kts | 20° |
| 2026-05-04 13:28 | 47.95615 | 1.33389 | 14827 ft | 328 kts | 20° |
| 2026-05-04 13:29 | 47.97761 | 1.34496 | 14457 ft | 327 kts | 20° |
| 2026-05-04 13:29 | 47.99900 | 1.35603 | 14196 ft | 322 kts | 20° |
| 2026-05-04 13:29 | 48.01996 | 1.36686 | 13662 ft | 316 kts | 20° |
| 2026-05-04 13:29 | 48.04055 | 1.37747 | 13252 ft | 312 kts | 20° |
| 2026-05-04 13:30 | 48.06062 | 1.38948 | 12887 ft | 309 kts | 29° |
| 2026-05-04 13:30 | 48.07859 | 1.40666 | 12664 ft | 305 kts | 36° |
| 2026-05-04 13:30 | 48.09613 | 1.42447 | 12424 ft | 304 kts | 35° |
| 2026-05-04 13:30 | 48.11359 | 1.44211 | 12182 ft | 302 kts | 35° |
| 2026-05-04 13:31 | 48.13101 | 1.45965 | 11951 ft | 301 kts | 35° |
| 2026-05-04 13:31 | 48.14830 | 1.47709 | 11791 ft | 300 kts | 35° |
| 2026-05-04 13:31 | 48.16558 | 1.49452 | 11665 ft | 299 kts | 35° |
| 2026-05-04 13:31 | 48.18280 | 1.51194 | 11525 ft | 298 kts | 35° |
| 2026-05-04 13:32 | 48.19995 | 1.52930 | 11380 ft | 297 kts | 35° |
| 2026-05-04 13:32 | 48.21707 | 1.54665 | 11242 ft | 297 kts | 35° |
| 2026-05-04 13:32 | 48.23414 | 1.56396 | 11094 ft | 295 kts | 35° |
| 2026-05-04 13:32 | 48.25092 | 1.58095 | 10965 ft | 287 kts | 35° |
| 2026-05-04 13:33 | 48.26725 | 1.59753 | 10836 ft | 279 kts | 35° |
| 2026-05-04 13:33 | 48.28309 | 1.61364 | 10707 ft | 270 kts | 35° |
| 2026-05-04 13:33 | 48.29838 | 1.62922 | 10586 ft | 261 kts | 35° |
| 2026-05-04 13:33 | 48.31323 | 1.64435 | 10446 ft | 256 kts | 35° |
| 2026-05-04 13:34 | 48.32879 | 1.66025 | 10328 ft | 282 kts | 35° |
| 2026-05-04 13:34 | 48.33963 | 1.67132 | 10235 ft | 286 kts | 35° |
| 2026-05-04 13:34 | 48.35618 | 1.68818 | 10094 ft | 288 kts | 35° |
| 2026-05-04 13:34 | 48.37275 | 1.70505 | 9961 ft | 287 kts | 35° |
| 2026-05-04 13:35 | 48.38941 | 1.72203 | 9494 ft | 292 kts | 35° |
| 2026-05-04 13:35 | 48.42288 | 1.75625 | 8718 ft | 287 kts | 35° |
| 2026-05-04 13:35 | 48.43923 | 1.77296 | 8439 ft | 281 kts | 35° |
| 2026-05-04 13:36 | 48.45530 | 1.78942 | 8100 ft | 278 kts | 35° |
| 2026-05-04 13:36 | 48.47121 | 1.80578 | 7737 ft | 276 kts | 35° |
| 2026-05-04 13:36 | 48.48704 | 1.82208 | 7420 ft | 273 kts | 35° |
| 2026-05-04 13:36 | 48.50245 | 1.83792 | 7293 ft | 262 kts | 35° |
| 2026-05-04 13:37 | 48.51719 | 1.85306 | 7113 ft | 253 kts | 35° |
| 2026-05-04 13:37 | 48.53216 | 1.86848 | 6439 ft | 267 kts | 35° |
| 2026-05-04 13:37 | 48.54781 | 1.88463 | 5738 ft | 277 kts | 35° |
| 2026-05-04 13:37 | 48.56357 | 1.90090 | 5441 ft | 270 kts | 35° |
| 2026-05-04 13:38 | 48.57737 | 1.91952 | 5307 ft | 265 kts | 53° |
| 2026-05-04 13:38 | 48.58678 | 1.94335 | 5187 ft | 264 kts | 62° |
| 2026-05-04 13:38 | 48.59553 | 1.96776 | 5072 ft | 264 kts | 62° |
| 2026-05-04 13:38 | 48.60419 | 1.99224 | 4957 ft | 263 kts | 62° |
| 2026-05-04 13:39 | 48.61285 | 2.01657 | 4748 ft | 261 kts | 62° |
| 2026-05-04 13:39 | 48.62139 | 2.04038 | 4419 ft | 255 kts | 62° |
| 2026-05-04 13:39 | 48.62977 | 2.06376 | 4087 ft | 251 kts | 62° |
| 2026-05-04 13:39 | 48.63806 | 2.08693 | 3748 ft | 249 kts | 62° |
| 2026-05-04 13:40 | 48.64613 | 2.10948 | 3419 ft | 238 kts | 62° |
| 2026-05-04 13:40 | 48.65371 | 2.13071 | 3113 ft | 227 kts | 62° |
| 2026-05-04 13:40 | 48.66104 | 2.15123 | 2812 ft | 217 kts | 62° |
| 2026-05-04 13:40 | 48.66822 | 2.17136 | 2526 ft | 211 kts | 62° |
| 2026-05-04 13:41 | 48.67492 | 2.19017 | 2257 ft | 200 kts | 62° |
| 2026-05-04 13:41 | 48.68124 | 2.20791 | 2004 ft | 184 kts | 62° |
| 2026-05-04 13:41 | 48.68703 | 2.22418 | 1771 ft | 165 kts | 62° |
| 2026-05-04 13:42 | 48.69688 | 2.25187 | 1342 ft | 139 kts | 63° |
| 2026-05-04 13:42 | 48.70138 | 2.26453 | 1152 ft | 135 kts | 63° |
| 2026-05-04 13:42 | 48.70582 | 2.27697 | 965 ft | 134 kts | 63° |
| 2026-05-04 13:42 | 48.71020 | 2.28936 | 802 ft | 133 kts | 64° |
| 2026-05-04 13:43 | 48.71454 | 2.30174 | 602 ft | 133 kts | 63° |
| 2026-05-04 13:43 | 48.71890 | 2.31406 | 437 ft | 133 kts | 63° |
| 2026-05-04 13:43 | 48.72326 | 2.32629 | 302 ft | 129 kts | 63° |
| 2026-05-04 13:43 | 48.72683 | 2.33634 | 303 ft | 84 kts | 61° |
| 2026-05-04 13:44 | 48.72893 | 2.34230 | 300 ft | 52 kts | 61° |
| 2026-05-04 13:44 | 48.72988 | 2.34552 | 296 ft | 25 kts | 82° |
| 2026-05-04 13:44 | 48.73013 | 2.34792 | 295 ft | 22 kts | 81° |
| 2026-05-04 13:44 | 48.73024 | 2.34960 | 298 ft | 15 kts | 83° |
| 2026-05-04 13:45 | 48.73035 | 2.35103 | 296 ft | 13 kts | 83° |
| 2026-05-04 13:45 | 48.73025 | 2.35225 | 296 ft | 11 kts | 124° |
| 2026-05-04 13:45 | 48.72969 | 2.35291 | 296 ft | 10 kts | 154° |
| 2026-05-04 13:45 | 48.72913 | 2.35336 | 298 ft | 9 kts | 133° |
| 2026-05-04 13:46 | 48.72903 | 2.35427 | 297 ft | 10 kts | 82° |
| 2026-05-04 13:46 | 48.72896 | 2.35531 | 299 ft | 11 kts | 130° |
| 2026-05-04 13:46 | 48.72821 | 2.35572 | 297 ft | 12 kts | 167° |
| 2026-05-04 13:46 | 48.72730 | 2.35609 | 298 ft | 15 kts | 165° |
| 2026-05-04 13:47 | 48.72622 | 2.35655 | 296 ft | 17 kts | 164° |
| 2026-05-04 13:47 | 48.72508 | 2.35705 | 299 ft | 15 kts | 155° |
| 2026-05-04 13:47 | 48.72475 | 2.35849 | 299 ft | 15 kts | 95° |
| 2026-05-04 13:47 | 48.72468 | 2.35995 | 296 ft | 14 kts | 87° |
| 2026-05-04 13:48 | 48.72488 | 2.36127 | 299 ft | 13 kts | 73° |
| 2026-05-04 13:48 | 48.72520 | 2.36213 | 297 ft | 6 kts | 1° |
| 2026-05-04 13:48 | 48.72557 | 2.36193 | 298 ft | 3 kts | 339° |
| 2026-05-04 13:48 | 48.72578 | 2.36181 | 296 ft | 3 kts | 340° |
| 2026-05-04 13:49 | 48.72596 | 2.36170 | 299 ft | 3 kts | 336° |
| 2026-05-04 13:49 | 48.72602 | 2.36166 | 298 ft | 0 kts | 338° |